sensor_id;sensor_type;location;lat;lon;timestamp;P1;durP1;ratioP1;P2;durP2;ratioP2
19671;SDS011;9983;51.114;13.788;2024-02-23T00:00:38;1.25;;;1.15;;
19671;SDS011;9983;51.114;13.788;2024-02-23T00:05:38;0.85;;;0.85;;
19671;SDS011;9983;51.114;13.788;2024-02-23T00:10:38;0.85;;;0.85;;
19671;SDS011;9983;51.114;13.788;2024-02-23T00:15:39;1.10;;;1.00;;
19671;SDS011;9983;51.114;13.788;2024-02-23T00:20:39;1.00;;;1.00;;
19671;SDS011;9983;51.114;13.788;2024-02-23T00:25:39;0.90;;;0.90;;
19671;SDS011;9983;51.114;13.788;2024-02-23T00:30:39;0.98;;;0.98;;
19671;SDS011;9983;51.114;13.788;2024-02-23T00:35:39;0.70;;;0.70;;
19671;SDS011;9983;51.114;13.788;2024-02-23T00:40:39;0.90;;;0.90;;
19671;SDS011;9983;51.114;13.788;2024-02-23T00:45:39;1.00;;;1.00;;
19671;SDS011;9983;51.114;13.788;2024-02-23T00:50:39;1.10;;;1.10;;
19671;SDS011;9983;51.114;13.788;2024-02-23T00:55:40;1.02;;;1.02;;
19671;SDS011;9983;51.114;13.788;2024-02-23T01:00:40;0.90;;;0.90;;
19671;SDS011;9983;51.114;13.788;2024-02-23T01:05:40;1.10;;;1.10;;
19671;SDS011;9983;51.114;13.788;2024-02-23T01:10:42;1.17;;;1.17;;
19671;SDS011;9983;51.114;13.788;2024-02-23T01:15:42;1.42;;;1.08;;
19671;SDS011;9983;51.114;13.788;2024-02-23T01:20:42;1.15;;;0.50;;
19671;SDS011;9983;51.114;13.788;2024-02-23T01:25:42;1.38;;;0.43;;
19671;SDS011;9983;51.114;13.788;2024-02-23T01:30:43;0.30;;;0.30;;
19671;SDS011;9983;51.114;13.788;2024-02-23T01:35:43;0.73;;;0.50;;
19671;SDS011;9983;51.114;13.788;2024-02-23T01:40:43;0.35;;;0.35;;
19671;SDS011;9983;51.114;13.788;2024-02-23T01:45:43;0.40;;;0.40;;
19671;SDS011;9983;51.114;13.788;2024-02-23T01:50:43;0.40;;;0.40;;
19671;SDS011;9983;51.114;13.788;2024-02-23T01:55:44;0.47;;;0.47;;
19671;SDS011;9983;51.114;13.788;2024-02-23T02:00:45;0.17;;;0.17;;
19671;SDS011;9983;51.114;13.788;2024-02-23T02:05:45;0.20;;;0.20;;
19671;SDS011;9983;51.114;13.788;2024-02-23T02:10:45;0.30;;;0.30;;
19671;SDS011;9983;51.114;13.788;2024-02-23T02:15:47;0.60;;;0.20;;
19671;SDS011;9983;51.114;13.788;2024-02-23T02:20:54;0.55;;;0.40;;
19671;SDS011;9983;51.114;13.788;2024-02-23T02:25:57;0.82;;;0.47;;
19671;SDS011;9983;51.114;13.788;2024-02-23T02:30:58;0.50;;;0.50;;
19671;SDS011;9983;51.114;13.788;2024-02-23T02:35:58;0.32;;;0.32;;
19671;SDS011;9983;51.114;13.788;2024-02-23T02:40:58;0.30;;;0.30;;
19671;SDS011;9983;51.114;13.788;2024-02-23T02:46:00;0.63;;;0.40;;
19671;SDS011;9983;51.114;13.788;2024-02-23T02:51:00;0.30;;;0.30;;
19671;SDS011;9983;51.114;13.788;2024-02-23T02:56:00;0.32;;;0.30;;
19671;SDS011;9983;51.114;13.788;2024-02-23T03:01:00;0.40;;;0.40;;
19671;SDS011;9983;51.114;13.788;2024-02-23T03:06:00;0.22;;;0.22;;
19671;SDS011;9983;51.114;13.788;2024-02-23T03:11:01;0.52;;;0.38;;
19671;SDS011;9983;51.114;13.788;2024-02-23T03:16:01;0.20;;;0.20;;
19671;SDS011;9983;51.114;13.788;2024-02-23T03:21:01;0.32;;;0.20;;
19671;SDS011;9983;51.114;13.788;2024-02-23T03:26:01;0.55;;;0.47;;
19671;SDS011;9983;51.114;13.788;2024-02-23T03:31:02;0.30;;;0.30;;
19671;SDS011;9983;51.114;13.788;2024-02-23T03:36:02;0.20;;;0.20;;
19671;SDS011;9983;51.114;13.788;2024-02-23T03:41:02;0.30;;;0.30;;
19671;SDS011;9983;51.114;13.788;2024-02-23T03:46:03;0.17;;;0.17;;
19671;SDS011;9983;51.114;13.788;2024-02-23T03:51:03;0.30;;;0.30;;
19671;SDS011;9983;51.114;13.788;2024-02-23T03:56:05;0.82;;;0.40;;
19671;SDS011;9983;51.114;13.788;2024-02-23T04:01:05;0.20;;;0.20;;
19671;SDS011;9983;51.114;13.788;2024-02-23T04:06:05;0.20;;;0.20;;
19671;SDS011;9983;51.114;13.788;2024-02-23T04:11:07;0.50;;;0.20;;
19671;SDS011;9983;51.114;13.788;2024-02-23T04:16:07;0.52;;;0.10;;
19671;SDS011;9983;51.114;13.788;2024-02-23T04:21:07;1.45;;;0.10;;
19671;SDS011;9983;51.114;13.788;2024-02-23T04:26:08;0.57;;;0.20;;
19671;SDS011;9983;51.114;13.788;2024-02-23T04:31:09;0.13;;;0.10;;
19671;SDS011;9983;51.114;13.788;2024-02-23T04:36:09;0.65;;;0.22;;
19671;SDS011;9983;51.114;13.788;2024-02-23T04:41:09;0.20;;;0.20;;
19671;SDS011;9983;51.114;13.788;2024-02-23T04:46:10;2.63;;;0.40;;
19671;SDS011;9983;51.114;13.788;2024-02-23T04:51:10;0.30;;;0.30;;
19671;SDS011;9983;51.114;13.788;2024-02-23T04:56:10;0.30;;;0.20;;
19671;SDS011;9983;51.114;13.788;2024-02-23T05:01:10;2.05;;;0.30;;
19671;SDS011;9983;51.114;13.788;2024-02-23T05:06:11;0.40;;;0.20;;
19671;SDS011;9983;51.114;13.788;2024-02-23T05:11:14;0.10;;;0.10;;
19671;SDS011;9983;51.114;13.788;2024-02-23T05:16:14;0.38;;;0.38;;
19671;SDS011;9983;51.114;13.788;2024-02-23T05:21:14;2.10;;;0.53;;
19671;SDS011;9983;51.114;13.788;2024-02-23T05:26:15;0.28;;;0.22;;
19671;SDS011;9983;51.114;13.788;2024-02-23T05:31:15;0.60;;;0.60;;
19671;SDS011;9983;51.114;13.788;2024-02-23T05:36:15;0.30;;;0.30;;
19671;SDS011;9983;51.114;13.788;2024-02-23T05:41:15;0.77;;;0.50;;
19671;SDS011;9983;51.114;13.788;2024-02-23T05:46:16;0.60;;;0.60;;
19671;SDS011;9983;51.114;13.788;2024-02-23T05:51:16;0.30;;;0.30;;
19671;SDS011;9983;51.114;13.788;2024-02-23T05:56:16;1.08;;;0.68;;
19671;SDS011;9983;51.114;13.788;2024-02-23T06:01:16;0.70;;;0.70;;
19671;SDS011;9983;51.114;13.788;2024-02-23T06:06:16;0.30;;;0.30;;
19671;SDS011;9983;51.114;13.788;2024-02-23T06:11:16;0.30;;;0.30;;
19671;SDS011;9983;51.114;13.788;2024-02-23T06:16:16;0.70;;;0.60;;
19671;SDS011;9983;51.114;13.788;2024-02-23T06:21:17;0.52;;;0.40;;
19671;SDS011;9983;51.114;13.788;2024-02-23T06:26:17;0.47;;;0.38;;
19671;SDS011;9983;51.114;13.788;2024-02-23T06:31:17;0.30;;;0.30;;
19671;SDS011;9983;51.114;13.788;2024-02-23T06:36:18;3.13;;;0.45;;
19671;SDS011;9983;51.114;13.788;2024-02-23T06:41:18;0.35;;;0.35;;
19671;SDS011;9983;51.114;13.788;2024-02-23T06:46:18;1.05;;;0.45;;
19671;SDS011;9983;51.114;13.788;2024-02-23T06:51:19;1.05;;;0.43;;
19671;SDS011;9983;51.114;13.788;2024-02-23T06:56:20;0.95;;;0.40;;
19671;SDS011;9983;51.114;13.788;2024-02-23T07:01:20;1.23;;;0.50;;
19671;SDS011;9983;51.114;13.788;2024-02-23T07:06:20;3.65;;;0.68;;
19671;SDS011;9983;51.114;13.788;2024-02-23T07:11:20;0.43;;;0.30;;
19671;SDS011;9983;51.114;13.788;2024-02-23T07:16:21;0.40;;;0.40;;
19671;SDS011;9983;51.114;13.788;2024-02-23T07:21:21;0.88;;;0.50;;
19671;SDS011;9983;51.114;13.788;2024-02-23T07:26:21;2.53;;;0.80;;
19671;SDS011;9983;51.114;13.788;2024-02-23T07:31:22;1.23;;;0.47;;
19671;SDS011;9983;51.114;13.788;2024-02-23T07:36:22;0.98;;;0.50;;
19671;SDS011;9983;51.114;13.788;2024-02-23T07:41:22;0.75;;;0.60;;
19671;SDS011;9983;51.114;13.788;2024-02-23T07:46:22;0.90;;;0.70;;
19671;SDS011;9983;51.114;13.788;2024-02-23T07:51:23;2.70;;;0.50;;
19671;SDS011;9983;51.114;13.788;2024-02-23T07:56:23;1.00;;;0.40;;
19671;SDS011;9983;51.114;13.788;2024-02-23T08:01:23;0.55;;;0.30;;
19671;SDS011;9983;51.114;13.788;2024-02-23T08:06:23;1.88;;;1.00;;
19671;SDS011;9983;51.114;13.788;2024-02-23T08:11:23;1.10;;;1.00;;
19671;SDS011;9983;51.114;13.788;2024-02-23T08:16:23;0.88;;;0.50;;
19671;SDS011;9983;51.114;13.788;2024-02-23T08:21:24;1.25;;;1.00;;
19671;SDS011;9983;51.114;13.788;2024-02-23T08:26:25;0.25;;;0.25;;
19671;SDS011;9983;51.114;13.788;2024-02-23T08:31:25;1.80;;;0.60;;
19671;SDS011;9983;51.114;13.788;2024-02-23T08:36:25;1.00;;;0.57;;
19671;SDS011;9983;51.114;13.788;2024-02-23T08:41:25;1.48;;;0.50;;
19671;SDS011;9983;51.114;13.788;2024-02-23T08:46:25;1.27;;;0.40;;
19671;SDS011;9983;51.114;13.788;2024-02-23T08:51:25;1.27;;;0.50;;
19671;SDS011;9983;51.114;13.788;2024-02-23T08:56:25;0.30;;;0.30;;
19671;SDS011;9983;51.114;13.788;2024-02-23T09:01:26;2.22;;;0.43;;
19671;SDS011;9983;51.114;13.788;2024-02-23T09:06:26;0.63;;;0.40;;
19671;SDS011;9983;51.114;13.788;2024-02-23T09:11:26;0.50;;;0.45;;
19671;SDS011;9983;51.114;13.788;2024-02-23T09:16:26;0.82;;;0.65;;
19671;SDS011;9983;51.114;13.788;2024-02-23T09:21:26;0.40;;;0.40;;
19671;SDS011;9983;51.114;13.788;2024-02-23T09:26:26;1.13;;;0.60;;
19671;SDS011;9983;51.114;13.788;2024-02-23T09:31:26;0.55;;;0.35;;
19671;SDS011;9983;51.114;13.788;2024-02-23T09:36:28;1.15;;;0.30;;
19671;SDS011;9983;51.114;13.788;2024-02-23T09:41:30;0.38;;;0.30;;
19671;SDS011;9983;51.114;13.788;2024-02-23T09:46:30;0.43;;;0.30;;
19671;SDS011;9983;51.114;13.788;2024-02-23T09:51:30;0.30;;;0.30;;
19671;SDS011;9983;51.114;13.788;2024-02-23T09:56:31;0.40;;;0.10;;
19671;SDS011;9983;51.114;13.788;2024-02-23T10:01:33;0.70;;;0.60;;
19671;SDS011;9983;51.114;13.788;2024-02-23T10:06:33;0.50;;;0.40;;
19671;SDS011;9983;51.114;13.788;2024-02-23T10:11:33;0.20;;;0.20;;
19671;SDS011;9983;51.114;13.788;2024-02-23T10:16:34;1.60;;;0.68;;
19671;SDS011;9983;51.114;13.788;2024-02-23T10:21:34;0.50;;;0.50;;
19671;SDS011;9983;51.114;13.788;2024-02-23T10:26:35;0.70;;;0.45;;
19671;SDS011;9983;51.114;13.788;2024-02-23T10:31:35;1.58;;;0.77;;
19671;SDS011;9983;51.114;13.788;2024-02-23T10:36:39;0.85;;;0.40;;
19671;SDS011;9983;51.114;13.788;2024-02-23T10:41:40;0.30;;;0.30;;
19671;SDS011;9983;51.114;13.788;2024-02-23T10:46:43;0.47;;;0.32;;
19671;SDS011;9983;51.114;13.788;2024-02-23T10:51:44;0.80;;;0.45;;
19671;SDS011;9983;51.114;13.788;2024-02-23T10:56:46;0.43;;;0.25;;
19671;SDS011;9983;51.114;13.788;2024-02-23T11:01:46;2.53;;;0.40;;
19671;SDS011;9983;51.114;13.788;2024-02-23T11:07:12;2.10;;;0.40;;
19671;SDS011;9983;51.114;13.788;2024-02-23T11:12:10;0.88;;;0.40;;
19671;SDS011;9983;51.114;13.788;2024-02-23T11:17:17;1.23;;;0.30;;
19671;SDS011;9983;51.114;13.788;2024-02-23T11:22:27;0.60;;;0.50;;
19671;SDS011;9983;51.114;13.788;2024-02-23T11:27:30;0.68;;;0.47;;
19671;SDS011;9983;51.114;13.788;2024-02-23T11:32:43;0.32;;;0.30;;
19671;SDS011;9983;51.114;13.788;2024-02-23T11:37:53;2.70;;;0.77;;
19671;SDS011;9983;51.114;13.788;2024-02-23T11:43:01;0.47;;;0.47;;
19671;SDS011;9983;51.114;13.788;2024-02-23T11:48:01;0.85;;;0.70;;
19671;SDS011;9983;51.114;13.788;2024-02-23T11:53:02;1.27;;;0.50;;
19671;SDS011;9983;51.114;13.788;2024-02-23T11:58:03;1.55;;;0.40;;
19671;SDS011;9983;51.114;13.788;2024-02-23T12:03:03;1.73;;;0.60;;
19671;SDS011;9983;51.114;13.788;2024-02-23T12:08:04;1.80;;;0.60;;
19671;SDS011;9983;51.114;13.788;2024-02-23T12:13:04;2.00;;;0.70;;
19671;SDS011;9983;51.114;13.788;2024-02-23T12:18:05;1.30;;;0.50;;
19671;SDS011;9983;51.114;13.788;2024-02-23T12:23:05;0.85;;;0.50;;
19671;SDS011;9983;51.114;13.788;2024-02-23T12:28:06;0.80;;;0.50;;
19671;SDS011;9983;51.114;13.788;2024-02-23T12:33:06;1.55;;;0.47;;
19671;SDS011;9983;51.114;13.788;2024-02-23T12:38:07;0.98;;;0.52;;
19671;SDS011;9983;51.114;13.788;2024-02-23T12:43:07;1.90;;;0.70;;
19671;SDS011;9983;51.114;13.788;2024-02-23T12:48:08;0.65;;;0.65;;
19671;SDS011;9983;51.114;13.788;2024-02-23T12:53:08;1.92;;;0.70;;
19671;SDS011;9983;51.114;13.788;2024-02-23T12:58:09;1.60;;;0.68;;
19671;SDS011;9983;51.114;13.788;2024-02-23T13:03:09;0.45;;;0.30;;
19671;SDS011;9983;51.114;13.788;2024-02-23T13:08:09;1.15;;;0.52;;
19671;SDS011;9983;51.114;13.788;2024-02-23T13:13:09;1.15;;;0.40;;
19671;SDS011;9983;51.114;13.788;2024-02-23T13:18:10;0.50;;;0.50;;
19671;SDS011;9983;51.114;13.788;2024-02-23T13:23:10;0.35;;;0.35;;
19671;SDS011;9983;51.114;13.788;2024-02-23T13:28:11;0.38;;;0.38;;
19671;SDS011;9983;51.114;13.788;2024-02-23T13:33:12;0.50;;;0.50;;
19671;SDS011;9983;51.114;13.788;2024-02-23T13:38:12;2.72;;;0.70;;
19671;SDS011;9983;51.114;13.788;2024-02-23T13:43:12;0.88;;;0.68;;
19671;SDS011;9983;51.114;13.788;2024-02-23T13:48:12;0.40;;;0.40;;
19671;SDS011;9983;51.114;13.788;2024-02-23T13:53:13;1.23;;;0.70;;
19671;SDS011;9983;51.114;13.788;2024-02-23T13:58:13;1.33;;;0.63;;
19671;SDS011;9983;51.114;13.788;2024-02-23T14:03:17;0.55;;;0.55;;
19671;SDS011;9983;51.114;13.788;2024-02-23T14:08:18;1.17;;;0.77;;
19671;SDS011;9983;51.114;13.788;2024-02-23T14:13:18;1.08;;;0.50;;
19671;SDS011;9983;51.114;13.788;2024-02-23T14:18:18;0.65;;;0.63;;
19671;SDS011;9983;51.114;13.788;2024-02-23T14:23:18;0.45;;;0.43;;
19671;SDS011;9983;51.114;13.788;2024-02-23T14:28:18;1.25;;;0.43;;
19671;SDS011;9983;51.114;13.788;2024-02-23T14:33:18;1.45;;;0.70;;
19671;SDS011;9983;51.114;13.788;2024-02-23T14:38:20;1.33;;;0.65;;
19671;SDS011;9983;51.114;13.788;2024-02-23T14:43:20;0.85;;;0.55;;
19671;SDS011;9983;51.114;13.788;2024-02-23T14:48:20;1.80;;;0.63;;
19671;SDS011;9983;51.114;13.788;2024-02-23T14:53:20;1.33;;;1.00;;
19671;SDS011;9983;51.114;13.788;2024-02-23T14:58:20;3.10;;;0.95;;
19671;SDS011;9983;51.114;13.788;2024-02-23T15:03:20;1.05;;;0.80;;
19671;SDS011;9983;51.114;13.788;2024-02-23T15:08:21;1.80;;;0.68;;
19671;SDS011;9983;51.114;13.788;2024-02-23T15:13:21;1.27;;;0.55;;
19671;SDS011;9983;51.114;13.788;2024-02-23T15:18:21;0.80;;;0.80;;
19671;SDS011;9983;51.114;13.788;2024-02-23T15:23:21;2.58;;;0.70;;
19671;SDS011;9983;51.114;13.788;2024-02-23T15:28:23;2.30;;;1.00;;
19671;SDS011;9983;51.114;13.788;2024-02-23T15:33:24;1.17;;;0.90;;
19671;SDS011;9983;51.114;13.788;2024-02-23T15:38:25;0.50;;;0.50;;
19671;SDS011;9983;51.114;13.788;2024-02-23T15:43:25;1.02;;;0.77;;
19671;SDS011;9983;51.114;13.788;2024-02-23T15:48:27;0.63;;;0.63;;
19671;SDS011;9983;51.114;13.788;2024-02-23T15:53:28;1.10;;;0.77;;
19671;SDS011;9983;51.114;13.788;2024-02-23T15:58:28;2.17;;;1.30;;
19671;SDS011;9983;51.114;13.788;2024-02-23T16:03:28;2.58;;;1.23;;
19671;SDS011;9983;51.114;13.788;2024-02-23T16:08:38;4.15;;;0.82;;
19671;SDS011;9983;51.114;13.788;2024-02-23T16:13:39;3.13;;;0.90;;
19671;SDS011;9983;51.114;13.788;2024-02-23T16:18:39;1.17;;;0.70;;
19671;SDS011;9983;51.114;13.788;2024-02-23T16:23:39;1.08;;;0.95;;
19671;SDS011;9983;51.114;13.788;2024-02-23T16:28:40;1.02;;;0.70;;
19671;SDS011;9983;51.114;13.788;2024-02-23T16:33:40;2.55;;;0.98;;
19671;SDS011;9983;51.114;13.788;2024-02-23T16:38:40;1.67;;;1.05;;
19671;SDS011;9983;51.114;13.788;2024-02-23T16:43:40;4.03;;;1.10;;
19671;SDS011;9983;51.114;13.788;2024-02-23T16:48:40;4.50;;;1.30;;
19671;SDS011;9983;51.114;13.788;2024-02-23T16:53:40;3.10;;;1.38;;
19671;SDS011;9983;51.114;13.788;2024-02-23T16:58:40;1.98;;;0.80;;
19671;SDS011;9983;51.114;13.788;2024-02-23T17:03:41;1.23;;;0.80;;
19671;SDS011;9983;51.114;13.788;2024-02-23T17:08:41;2.30;;;0.80;;
19671;SDS011;9983;51.114;13.788;2024-02-23T17:13:41;1.80;;;1.00;;
19671;SDS011;9983;51.114;13.788;2024-02-23T17:18:43;1.35;;;0.88;;
19671;SDS011;9983;51.114;13.788;2024-02-23T17:23:43;1.95;;;0.95;;
19671;SDS011;9983;51.114;13.788;2024-02-23T17:28:43;2.65;;;0.50;;
19671;SDS011;9983;51.114;13.788;2024-02-23T17:33:44;0.77;;;0.65;;
19671;SDS011;9983;51.114;13.788;2024-02-23T17:38:45;1.92;;;0.77;;
19671;SDS011;9983;51.114;13.788;2024-02-23T17:43:45;1.90;;;1.00;;
19671;SDS011;9983;51.114;13.788;2024-02-23T17:48:45;2.78;;;1.30;;
19671;SDS011;9983;51.114;13.788;2024-02-23T17:53:45;1.75;;;1.25;;
19671;SDS011;9983;51.114;13.788;2024-02-23T17:58:45;2.70;;;0.60;;
19671;SDS011;9983;51.114;13.788;2024-02-23T18:03:45;1.10;;;0.90;;
19671;SDS011;9983;51.114;13.788;2024-02-23T18:08:46;4.10;;;1.15;;
19671;SDS011;9983;51.114;13.788;2024-02-23T18:13:46;2.53;;;0.80;;
19671;SDS011;9983;51.114;13.788;2024-02-23T18:18:46;5.50;;;1.20;;
19671;SDS011;9983;51.114;13.788;2024-02-23T18:23:46;3.03;;;1.50;;
19671;SDS011;9983;51.114;13.788;2024-02-23T18:28:46;0.63;;;0.63;;
19671;SDS011;9983;51.114;13.788;2024-02-23T18:33:46;0.90;;;0.90;;
19671;SDS011;9983;51.114;13.788;2024-02-23T18:38:46;2.30;;;0.63;;
19671;SDS011;9983;51.114;13.788;2024-02-23T18:43:47;2.10;;;0.85;;
19671;SDS011;9983;51.114;13.788;2024-02-23T18:48:47;2.17;;;1.00;;
19671;SDS011;9983;51.114;13.788;2024-02-23T18:53:48;1.05;;;0.95;;
19671;SDS011;9983;51.114;13.788;2024-02-23T18:58:48;4.05;;;1.17;;
19671;SDS011;9983;51.114;13.788;2024-02-23T19:03:48;4.35;;;0.98;;
19671;SDS011;9983;51.114;13.788;2024-02-23T19:08:49;3.03;;;1.02;;
19671;SDS011;9983;51.114;13.788;2024-02-23T19:13:49;0.98;;;0.73;;
19671;SDS011;9983;51.114;13.788;2024-02-23T19:18:49;1.80;;;1.13;;
19671;SDS011;9983;51.114;13.788;2024-02-23T19:23:50;1.63;;;1.10;;
19671;SDS011;9983;51.114;13.788;2024-02-23T19:28:50;1.85;;;0.98;;
19671;SDS011;9983;51.114;13.788;2024-02-23T19:33:50;1.73;;;1.00;;
19671;SDS011;9983;51.114;13.788;2024-02-23T19:38:50;2.42;;;0.90;;
19671;SDS011;9983;51.114;13.788;2024-02-23T19:43:51;4.30;;;1.55;;
19671;SDS011;9983;51.114;13.788;2024-02-23T19:48:51;2.22;;;1.00;;
19671;SDS011;9983;51.114;13.788;2024-02-23T19:53:51;1.40;;;1.30;;
19671;SDS011;9983;51.114;13.788;2024-02-23T19:58:51;4.20;;;1.20;;
19671;SDS011;9983;51.114;13.788;2024-02-23T20:03:51;2.22;;;1.33;;
19671;SDS011;9983;51.114;13.788;2024-02-23T20:08:51;2.03;;;1.23;;
19671;SDS011;9983;51.114;13.788;2024-02-23T20:13:52;3.08;;;1.60;;
19671;SDS011;9983;51.114;13.788;2024-02-23T20:18:53;3.05;;;1.52;;
19671;SDS011;9983;51.114;13.788;2024-02-23T20:23:53;1.48;;;1.27;;
19671;SDS011;9983;51.114;13.788;2024-02-23T20:28:53;3.20;;;1.20;;
19671;SDS011;9983;51.114;13.788;2024-02-23T20:33:53;1.65;;;1.50;;
19671;SDS011;9983;51.114;13.788;2024-02-23T20:38:54;3.85;;;2.17;;
19671;SDS011;9983;51.114;13.788;2024-02-23T20:43:54;2.63;;;1.45;;
19671;SDS011;9983;51.114;13.788;2024-02-23T20:48:54;2.28;;;1.40;;
19671;SDS011;9983;51.114;13.788;2024-02-23T20:53:54;3.10;;;1.20;;
19671;SDS011;9983;51.114;13.788;2024-02-23T20:58:54;5.53;;;2.00;;
19671;SDS011;9983;51.114;13.788;2024-02-23T21:03:54;4.13;;;1.38;;
19671;SDS011;9983;51.114;13.788;2024-02-23T21:08:55;3.72;;;1.42;;
19671;SDS011;9983;51.114;13.788;2024-02-23T21:13:55;1.40;;;1.30;;
19671;SDS011;9983;51.114;13.788;2024-02-23T21:18:56;2.70;;;1.40;;
19671;SDS011;9983;51.114;13.788;2024-02-23T21:23:56;2.55;;;1.20;;
19671;SDS011;9983;51.114;13.788;2024-02-23T21:28:56;3.17;;;1.70;;
19671;SDS011;9983;51.114;13.788;2024-02-23T21:33:57;1.30;;;1.20;;
19671;SDS011;9983;51.114;13.788;2024-02-23T21:38:57;2.78;;;1.95;;
19671;SDS011;9983;51.114;13.788;2024-02-23T21:43:57;2.88;;;1.70;;
19671;SDS011;9983;51.114;13.788;2024-02-23T21:48:57;2.45;;;1.70;;
19671;SDS011;9983;51.114;13.788;2024-02-23T21:53:57;4.32;;;2.15;;
19671;SDS011;9983;51.114;13.788;2024-02-23T21:58:58;1.35;;;1.25;;
19671;SDS011;9983;51.114;13.788;2024-02-23T22:03:58;1.60;;;1.50;;
19671;SDS011;9983;51.114;13.788;2024-02-23T22:08:58;1.75;;;1.60;;
19671;SDS011;9983;51.114;13.788;2024-02-23T22:13:58;2.20;;;1.50;;
19671;SDS011;9983;51.114;13.788;2024-02-23T22:18:58;2.92;;;1.65;;
19671;SDS011;9983;51.114;13.788;2024-02-23T22:23:59;3.63;;;1.70;;
19671;SDS011;9983;51.114;13.788;2024-02-23T22:28:59;2.30;;;1.42;;
19671;SDS011;9983;51.114;13.788;2024-02-23T22:33:59;2.28;;;1.45;;
19671;SDS011;9983;51.114;13.788;2024-02-23T22:38:59;2.53;;;1.73;;
19671;SDS011;9983;51.114;13.788;2024-02-23T22:43:59;1.58;;;1.45;;
19671;SDS011;9983;51.114;13.788;2024-02-23T22:48:59;2.50;;;1.63;;
19671;SDS011;9983;51.114;13.788;2024-02-23T22:54:00;3.38;;;1.48;;
19671;SDS011;9983;51.114;13.788;2024-02-23T22:59:00;2.22;;;1.65;;
19671;SDS011;9983;51.114;13.788;2024-02-23T23:04:00;1.35;;;1.25;;
19671;SDS011;9983;51.114;13.788;2024-02-23T23:09:00;2.85;;;2.00;;
19671;SDS011;9983;51.114;13.788;2024-02-23T23:14:01;1.80;;;1.58;;
19671;SDS011;9983;51.114;13.788;2024-02-23T23:19:03;2.22;;;1.40;;
19671;SDS011;9983;51.114;13.788;2024-02-23T23:24:03;3.97;;;1.50;;
19671;SDS011;9983;51.114;13.788;2024-02-23T23:29:03;4.00;;;2.25;;
19671;SDS011;9983;51.114;13.788;2024-02-23T23:34:03;3.38;;;1.67;;
19671;SDS011;9983;51.114;13.788;2024-02-23T23:39:03;5.78;;;1.80;;
19671;SDS011;9983;51.114;13.788;2024-02-23T23:44:04;1.77;;;1.48;;
19671;SDS011;9983;51.114;13.788;2024-02-23T23:49:04;1.70;;;1.35;;
19671;SDS011;9983;51.114;13.788;2024-02-23T23:54:04;2.47;;;1.65;;
19671;SDS011;9983;51.114;13.788;2024-02-23T23:59:04;3.42;;;1.70;;
